Country
Station

 

Weather  for  Tamatave  -  Madagascar    Madagascar

  
26 °C (79 °F)
    
 
 

Current METAR for Tamatave is :

FMMT 161300Z 19012KT 9999 VCSH FEW007 SCT017TCU BKN033 26/21 Q1016 TEMPO 3500 SHRA

 

This is a report for Tamatave - Madagascar.
 
The report was made 7 minutes ago, at 13:00 UTC .
The wind was blowing at a speed of 6.2 meters per second (13.8 miles per hour) from south (190°).
 
The temperature was 26 °C (79 °F), with a dew-point at 21 °C (70 °F).
The temperature felt like 28 °C (82 °F).
 
The atmospheric pressure was 1016 hPa (30.00 inHg).
The relative humidity was 74.0%.
 
There were a few clouds at a height of 213 meters (700 feet), scattered towering cumulus clouds at a height of 518 meters (1700 feet) and broken clouds at a height of 1006 meters (3300 feet).
 
The overall visibility was greater than 10 kilometers (6.2 miles).
 
Currently showers of in the vicinity.

 
 
 
 

Country :   A   B   C   D   E   F   G   H   I   J   K   L   M   N   O   P   Q   R   S   T   U   V   W   Y   Z

 

Site Info  |  Disclaimer  |  Credits  |  Privacy
Contact us  |  Add to favorites
© 2013-2019 METARs - All rights reserved